createdAt,value
2023-03-03T00:01:08.010Z,8.25
2023-03-03T00:06:20.823Z,9.07
2023-03-03T00:11:31.114Z,9.85
2023-03-03T00:16:42.329Z,9.63
2023-03-03T00:21:58.372Z,8.77
2023-03-03T00:27:29.993Z,11.18
2023-03-03T00:32:48.785Z,8.40
2023-03-03T00:37:56.269Z,10.32
2023-03-03T00:43:18.509Z,7.32
2023-03-03T00:48:31.349Z,6.68
2023-03-03T00:53:45.931Z,8.25
2023-03-03T00:58:49.484Z,8.13
2023-03-03T01:04:00.362Z,7.35
2023-03-03T01:09:05.274Z,6.20
2023-03-03T01:14:09.162Z,8.52
2023-03-03T01:19:11.964Z,8.50
2023-03-03T01:24:19.432Z,7.75
2023-03-03T01:29:24.492Z,7.65
2023-03-03T01:34:29.817Z,7.95
2023-03-03T01:39:37.757Z,6.60
2023-03-03T01:44:46.869Z,7.28
2023-03-03T01:49:53.666Z,7.20
2023-03-03T01:55:03.221Z,7.18
2023-03-03T02:00:07.910Z,7.47
2023-03-03T02:05:11.627Z,6.22
2023-03-03T02:10:18.973Z,6.55
2023-03-03T02:15:24.495Z,6.45
2023-03-03T02:20:50.326Z,7.00
2023-03-03T02:26:09.809Z,7.18
2023-03-03T02:31:14.953Z,5.30
2023-03-03T02:36:20.213Z,5.68
2023-03-03T02:41:35.685Z,6.40
2023-03-03T02:46:40.477Z,5.88
2023-03-03T02:51:45.946Z,6.80
2023-03-03T02:56:55.632Z,6.28
2023-03-03T03:01:59.003Z,7.28
2023-03-03T03:07:01.561Z,7.40
2023-03-03T03:12:06.731Z,5.78
2023-03-03T03:17:09.339Z,5.72
2023-03-03T03:22:14.412Z,6.10
2023-03-03T03:27:20.755Z,6.32
2023-03-03T03:32:26.521Z,5.80
2023-03-03T03:37:29.274Z,5.55
2023-03-03T03:42:35.332Z,5.13
2023-03-03T03:52:47.942Z,4.57
2023-03-03T03:57:55.690Z,4.80
2023-03-03T04:02:58.237Z,4.90
2023-03-03T04:08:00.906Z,4.63
2023-03-03T04:13:05.772Z,4.65
2023-03-03T04:18:08.737Z,5.95
2023-03-03T04:23:14.443Z,5.05
2023-03-03T04:28:20.750Z,4.20
2023-03-03T04:33:27.273Z,4.90
2023-03-03T04:38:34.605Z,4.82
2023-03-03T04:43:38.716Z,4.35
2023-03-03T04:48:41.662Z,4.90
2023-03-03T04:54:43.583Z,4.20
2023-03-03T05:06:27.771Z,3.47
2023-03-03T05:11:31.272Z,3.97
2023-03-03T05:16:33.471Z,5.28
2023-03-03T05:26:46.555Z,3.90
2023-03-03T05:31:48.870Z,5.03
2023-03-03T05:36:51.410Z,3.38
2023-03-03T05:41:55.017Z,3.45
2023-03-03T05:46:57.155Z,3.40
2023-03-03T05:51:59.931Z,3.30
2023-03-03T05:57:03.481Z,3.22
2023-03-03T06:02:05.827Z,2.75
2023-03-03T06:07:07.965Z,4.78
2023-03-03T06:12:11.556Z,3.50
2023-03-03T06:17:13.851Z,4.90
2023-03-03T06:22:16.218Z,5.72
2023-03-03T06:27:19.846Z,5.68
2023-03-03T06:32:22.143Z,5.05
2023-03-03T06:37:24.366Z,4.78
2023-03-03T06:42:28.062Z,5.78
2023-03-03T06:47:30.261Z,6.65
2023-03-03T06:52:32.405Z,8.90
2023-03-03T06:57:35.974Z,5.05
2023-03-03T07:02:38.212Z,6.40
2023-03-03T07:07:40.412Z,5.00
2023-03-03T07:12:44.126Z,5.00
2023-03-03T07:17:50.499Z,5.22
2023-03-03T07:22:53.140Z,4.40
2023-03-03T07:28:00.290Z,4.30
2023-03-03T07:38:24.361Z,4.15
2023-03-03T07:43:39.837Z,3.10
2023-03-03T07:48:43.406Z,3.63
2023-03-03T07:53:45.620Z,3.30
2023-03-03T07:58:49.432Z,3.53
2023-03-03T08:03:52.564Z,3.30
2023-03-03T08:08:55.318Z,3.50
2023-03-03T08:13:59.032Z,15.13
2023-03-03T08:19:03.630Z,5.10
2023-03-03T08:24:06.450Z,10.23
2023-03-03T08:29:10.290Z,4.78
2023-03-03T08:34:12.566Z,16.23
2023-03-03T08:39:14.839Z,5.07
2023-03-03T08:44:18.444Z,7.13
2023-03-03T08:49:21.685Z,4.97
2023-03-03T08:54:24.284Z,5.15
2023-03-03T08:59:28.016Z,4.03
2023-03-03T09:04:30.296Z,4.65
2023-03-03T09:09:32.446Z,5.13
2023-03-03T09:14:35.983Z,3.53
2023-03-03T09:19:38.529Z,3.47
2023-03-03T09:24:43.122Z,4.18
2023-03-03T09:29:46.846Z,3.38
2023-03-03T09:34:49.129Z,4.22
2023-03-03T09:39:53.633Z,4.18
2023-03-03T09:45:26.853Z,3.30
2023-03-03T09:50:41.275Z,3.90
2023-03-03T09:55:51.051Z,2.42
2023-03-03T10:01:08.709Z,3.60
2023-03-03T10:06:20.836Z,2.78
2023-03-03T10:11:29.031Z,4.20
2023-03-03T10:16:51.936Z,3.28
2023-03-03T10:22:05.748Z,4.43
2023-03-03T10:27:25.015Z,3.22
2023-03-03T10:32:46.993Z,3.13
2023-03-03T10:38:02.864Z,4.03
2023-03-03T10:43:29.820Z,6.00
2023-03-03T10:48:51.321Z,4.28
2023-03-03T10:54:15.591Z,3.53
2023-03-03T10:59:51.627Z,3.97
2023-03-03T11:05:14.009Z,3.90
2023-03-03T11:10:28.099Z,5.50
2023-03-03T11:15:41.778Z,6.03
2023-03-03T11:20:55.651Z,4.25
2023-03-03T11:26:09.323Z,3.08
2023-03-03T11:31:20.083Z,3.13
2023-03-03T11:36:28.110Z,3.33
2023-03-03T11:41:35.083Z,3.08
2023-03-03T11:46:44.945Z,4.18
2023-03-03T11:52:00.559Z,3.40
2023-03-03T11:57:16.507Z,3.30
2023-03-03T12:02:35.212Z,3.40
2023-03-03T12:07:50.614Z,3.42
2023-03-03T12:13:03.184Z,2.75
2023-03-03T12:18:23.561Z,2.38
2023-03-03T12:23:46.821Z,1.90
2023-03-03T12:28:55.029Z,1.23
2023-03-03T12:34:02.339Z,2.60
2023-03-03T12:44:19.113Z,1.43
2023-03-03T12:49:28.194Z,1.10
2023-03-03T12:54:53.790Z,1.20
2023-03-03T13:00:18.308Z,1.17
2023-03-03T13:05:25.016Z,1.42
2023-03-03T13:10:37.744Z,1.42
2023-03-03T13:15:55.424Z,2.47
2023-03-03T13:21:04.797Z,1.20
2023-03-03T13:26:17.191Z,1.27
2023-03-03T13:31:22.801Z,1.27
2023-03-03T13:36:39.021Z,1.08
2023-03-03T13:41:49.248Z,1.33
2023-03-03T13:47:01.332Z,1.58
2023-03-03T13:52:07.844Z,1.70
2023-03-03T13:57:26.005Z,2.17
2023-03-03T14:02:58.143Z,1.55
2023-03-03T14:08:06.751Z,1.02
2023-03-03T14:13:13.012Z,1.58
2023-03-03T14:18:24.735Z,1.70
2023-03-03T14:23:32.814Z,2.42
2023-03-03T14:28:42.192Z,2.15
2023-03-03T14:33:57.053Z,1.90
2023-03-03T14:38:59.606Z,2.38
2023-03-03T14:44:24.917Z,2.22
2023-03-03T14:49:31.987Z,5.43
2023-03-03T14:54:40.040Z,2.50
2023-03-03T14:59:59.724Z,2.60
2023-03-03T15:05:29.568Z,2.60
2023-03-03T15:10:34.613Z,2.90
2023-03-03T15:15:52.270Z,2.00
2023-03-03T15:21:02.150Z,2.33
2023-03-03T15:26:10.411Z,2.30
2023-03-03T15:31:22.510Z,3.22
2023-03-03T15:36:31.404Z,2.47
2023-03-03T15:41:43.613Z,2.58
2023-03-03T15:47:21.210Z,3.28
2023-03-03T15:52:37.265Z,11.80
2023-03-03T15:57:48.756Z,3.30
2023-03-03T16:02:57.753Z,2.85
2023-03-03T16:08:09.165Z,2.50
2023-03-03T16:13:41.602Z,2.55
2023-03-03T16:18:58.432Z,3.22
2023-03-03T16:29:42.752Z,3.00
2023-03-03T16:34:56.904Z,3.80
2023-03-03T16:40:11.194Z,2.95
2023-03-03T16:45:22.548Z,3.08
2023-03-03T16:50:31.661Z,6.65
2023-03-03T16:55:42.679Z,3.30
2023-03-03T17:00:54.053Z,5.80
2023-03-03T17:06:04.156Z,4.25
2023-03-03T17:11:17.348Z,3.92
2023-03-03T17:16:28.429Z,2.60
2023-03-03T17:21:46.839Z,3.60
2023-03-03T17:27:04.038Z,3.30
2023-03-03T17:37:23.878Z,2.60
2023-03-03T17:42:37.648Z,2.70
2023-03-03T17:48:05.109Z,3.22
2023-03-03T17:53:35.595Z,3.45
2023-03-03T17:59:27.354Z,2.95
2023-03-03T18:04:46.602Z,2.80
2023-03-03T18:10:21.966Z,2.83
2023-03-03T18:15:39.954Z,2.88
2023-03-03T18:21:02.859Z,2.70
2023-03-03T18:26:38.394Z,2.97
2023-03-03T18:31:50.442Z,2.72
2023-03-03T18:36:55.327Z,2.58
2023-03-03T18:42:35.167Z,2.97
2023-03-03T18:48:05.407Z,3.22
2023-03-03T18:53:22.827Z,4.40
2023-03-03T18:58:34.755Z,4.25
2023-03-03T19:03:56.544Z,3.85
2023-03-03T19:08:59.241Z,3.15
2023-03-03T19:14:33.396Z,3.42
2023-03-03T19:20:01.598Z,3.72
2023-03-03T19:25:23.851Z,5.40
2023-03-03T19:30:42.747Z,5.03
2023-03-03T19:36:06.668Z,5.35
2023-03-03T19:41:27.903Z,5.60
2023-03-03T19:46:44.286Z,5.35
2023-03-03T19:51:55.592Z,4.20
2023-03-03T19:57:01.659Z,3.10
2023-03-03T20:02:26.768Z,3.83
2023-03-03T20:07:40.724Z,2.95
2023-03-03T20:12:54.669Z,3.05
2023-03-03T20:18:29.150Z,2.80
2023-03-03T20:23:41.599Z,3.05
2023-03-03T20:29:22.227Z,3.30
2023-03-03T20:34:35.602Z,5.30
2023-03-03T20:39:52.568Z,4.07
2023-03-03T20:45:10.326Z,3.55
2023-03-03T20:50:23.142Z,4.40
2023-03-03T20:55:34.712Z,2.78
2023-03-03T21:00:40.985Z,2.75
2023-03-03T21:05:57.659Z,2.20
2023-03-03T21:11:01.445Z,2.80
2023-03-03T21:16:09.049Z,2.47
2023-03-03T21:21:11.618Z,3.00
2023-03-03T21:26:15.063Z,2.30
2023-03-03T21:31:17.543Z,2.28
2023-03-03T21:36:22.381Z,2.30
2023-03-03T21:41:26.925Z,2.38
2023-03-03T21:46:29.130Z,2.53
2023-03-03T21:51:31.258Z,2.25
2023-03-03T21:56:34.807Z,1.95
2023-03-03T22:01:38.358Z,2.20
2023-03-03T22:06:40.791Z,2.83
2023-03-03T22:11:44.595Z,3.45
2023-03-03T22:16:46.903Z,3.10
2023-03-03T22:21:49.073Z,3.35
2023-03-03T22:26:52.742Z,2.40
2023-03-03T22:31:54.936Z,2.50
2023-03-03T22:36:57.146Z,1.90
2023-03-03T22:42:00.778Z,1.90
2023-03-03T22:47:03.173Z,2.83
2023-03-03T22:52:05.569Z,2.10
2023-03-03T22:57:09.250Z,2.03
2023-03-03T23:02:11.306Z,1.92
2023-03-03T23:07:13.373Z,2.63
2023-03-03T23:12:16.978Z,2.30
2023-03-03T23:17:19.188Z,2.55
2023-03-03T23:22:21.343Z,2.10
2023-03-03T23:27:24.915Z,2.35
2023-03-03T23:32:27.188Z,2.00
2023-03-03T23:37:29.446Z,1.83
2023-03-03T23:42:33.225Z,2.30
2023-03-03T23:47:35.624Z,2.40
2023-03-03T23:52:37.810Z,1.77
2023-03-03T23:57:41.344Z,2.05
